createdAt,value
2022-12-05T00:01:23.951Z,68.69
2022-12-05T00:04:25.905Z,69.27
2022-12-05T00:07:28.739Z,69.43
2022-12-05T00:10:30.617Z,68.78
2022-12-05T00:13:32.486Z,68.80
2022-12-05T00:16:37.119Z,69.36
2022-12-05T00:19:39.616Z,69.30
2022-12-05T00:22:41.453Z,69.30
2022-12-05T00:25:43.466Z,69.43
2022-12-05T00:28:45.535Z,69.17
2022-12-05T00:31:47.708Z,69.59
2022-12-05T00:34:49.676Z,69.57
2022-12-05T00:37:51.523Z,69.44
2022-12-05T00:40:53.367Z,69.86
2022-12-05T00:43:56.207Z,69.68
2022-12-05T00:46:57.875Z,70.00
2022-12-05T00:50:00.924Z,69.52
2022-12-05T00:53:02.806Z,69.74
2022-12-05T00:56:13.973Z,69.87
2022-12-05T00:59:19.318Z,69.70
2022-12-05T01:02:21.202Z,70.38
2022-12-05T01:05:23.019Z,70.12
2022-12-05T01:08:25.208Z,70.48
2022-12-05T01:11:28.086Z,69.97
2022-12-05T01:14:29.825Z,70.04
2022-12-05T01:17:31.804Z,70.14
2022-12-05T01:20:33.608Z,70.13
2022-12-05T01:23:35.427Z,70.33
2022-12-05T01:26:38.253Z,70.14
2022-12-05T01:29:40.019Z,70.05
2022-12-05T01:32:41.844Z,70.08
2022-12-05T01:35:44.605Z,70.22
2022-12-05T01:38:46.880Z,70.26
2022-12-05T01:41:50.312Z,70.51
2022-12-05T01:44:52.239Z,70.52
2022-12-05T01:47:54.514Z,70.58
2022-12-05T01:50:58.615Z,70.25
2022-12-05T01:54:01.892Z,70.13
2022-12-05T01:57:08.111Z,70.19
2022-12-05T02:00:16.536Z,70.48
2022-12-05T02:03:20.874Z,70.53
2022-12-05T02:06:24.935Z,70.51
2022-12-05T02:09:26.824Z,70.15
2022-12-05T02:12:29.023Z,70.35
2022-12-05T02:15:45.732Z,70.33
2022-12-05T02:18:56.528Z,70.01
2022-12-05T02:21:58.365Z,70.62
2022-12-05T02:25:26.915Z,70.66
2022-12-05T02:29:03.945Z,70.51
2022-12-05T02:32:38.349Z,70.32
2022-12-05T02:35:55.791Z,70.40
2022-12-05T02:39:29.803Z,70.57
2022-12-05T02:42:39.142Z,70.07
2022-12-05T02:45:44.175Z,70.69
2022-12-05T02:48:48.423Z,69.93
2022-12-05T02:51:57.133Z,70.37
2022-12-05T02:55:00.255Z,70.65
2022-12-05T02:58:07.735Z,70.68
2022-12-05T03:01:09.706Z,70.58
2022-12-05T03:04:13.802Z,70.58
2022-12-05T03:07:19.682Z,70.87
2022-12-05T03:10:25.280Z,70.65
2022-12-05T03:13:43.609Z,70.37
2022-12-05T03:16:50.388Z,70.81
2022-12-05T03:20:07.375Z,71.18
2022-12-05T03:23:16.235Z,70.63
2022-12-05T03:26:30.179Z,71.11
2022-12-05T03:29:59.028Z,70.91
2022-12-05T03:33:04.221Z,70.78
2022-12-05T03:36:31.874Z,71.11
2022-12-05T03:39:38.407Z,70.82
2022-12-05T03:42:55.104Z,71.23
2022-12-05T03:46:11.908Z,70.88
2022-12-05T03:49:20.647Z,70.59
2022-12-05T03:52:30.053Z,71.05
2022-12-05T03:55:35.616Z,70.88
2022-12-05T03:58:45.250Z,70.71
2022-12-05T04:01:49.814Z,71.02
2022-12-05T04:05:07.129Z,70.81
2022-12-05T04:08:22.502Z,71.01
2022-12-05T04:11:27.582Z,70.67
2022-12-05T04:14:40.264Z,70.79
2022-12-05T04:17:53.742Z,70.71
2022-12-05T04:21:17.207Z,71.22
2022-12-05T04:24:55.753Z,71.36
2022-12-05T04:28:02.207Z,70.71
2022-12-05T04:31:10.170Z,71.37
2022-12-05T04:34:16.106Z,71.46
2022-12-05T04:37:23.616Z,71.00
2022-12-05T04:40:33.973Z,70.87
2022-12-05T04:43:41.024Z,70.91
2022-12-05T04:46:45.018Z,71.14
2022-12-05T04:49:52.185Z,71.21
2022-12-05T04:52:59.454Z,71.15
2022-12-05T04:56:04.563Z,71.20
2022-12-05T04:59:06.447Z,71.42
2022-12-05T05:02:10.581Z,71.80
2022-12-05T05:05:16.942Z,71.51
2022-12-05T05:08:21.425Z,71.58
2022-12-05T05:11:29.228Z,71.42
2022-12-05T05:14:31.287Z,71.67
2022-12-05T05:17:33.174Z,71.30
2022-12-05T05:20:35.024Z,71.79
2022-12-05T05:23:36.887Z,71.71
2022-12-05T05:26:41.468Z,72.25
2022-12-05T05:29:43.317Z,71.46
2022-12-05T05:32:45.334Z,72.05
2022-12-05T05:35:47.240Z,71.58
2022-12-05T05:38:52.060Z,71.90
2022-12-05T05:41:53.909Z,71.60
2022-12-05T05:44:55.759Z,71.93
2022-12-05T05:47:57.949Z,71.83
2022-12-05T05:51:00.883Z,71.91
2022-12-05T05:54:02.996Z,71.85
2022-12-05T05:57:04.874Z,71.76
2022-12-05T06:00:08.419Z,71.63
2022-12-05T06:03:10.432Z,71.13
2022-12-05T06:06:14.091Z,71.47
2022-12-05T06:09:16.048Z,71.51
2022-12-05T06:12:17.855Z,71.49
2022-12-05T06:15:20.726Z,71.71
2022-12-05T06:18:22.530Z,71.38
2022-12-05T06:21:25.110Z,71.53
2022-12-05T06:24:27.414Z,70.53
2022-12-05T06:27:31.399Z,71.26
2022-12-05T06:30:33.174Z,70.84
2022-12-05T06:33:35.060Z,70.81
2022-12-05T06:36:36.927Z,70.28
2022-12-05T06:39:38.866Z,70.12
2022-12-05T06:42:40.707Z,69.31
2022-12-05T06:45:42.553Z,69.94
2022-12-05T06:48:44.453Z,69.56
2022-12-05T06:51:46.371Z,69.23
2022-12-05T06:54:49.271Z,68.69
2022-12-05T06:57:51.057Z,68.39
2022-12-05T07:01:11.961Z,67.69
2022-12-05T07:04:25.710Z,67.94
2022-12-05T07:07:29.917Z,67.47
2022-12-05T07:10:31.879Z,66.86
2022-12-05T07:13:33.809Z,66.75
2022-12-05T07:16:35.760Z,66.35
2022-12-05T07:19:37.777Z,65.82
2022-12-05T07:22:39.613Z,64.85
2022-12-05T07:25:41.903Z,64.45
2022-12-05T07:28:43.932Z,64.30
2022-12-05T07:31:45.870Z,63.84
2022-12-05T07:34:52.105Z,63.42
2022-12-05T07:37:56.771Z,63.32
2022-12-05T07:40:58.591Z,62.60
2022-12-05T07:44:00.946Z,61.92
2022-12-05T07:47:02.795Z,61.39
2022-12-05T07:50:05.263Z,60.83
2022-12-05T07:53:07.259Z,60.51
2022-12-05T07:56:10.175Z,60.20
2022-12-05T07:59:12.075Z,59.73
2022-12-05T08:02:14.076Z,59.50
2022-12-05T08:05:16.639Z,58.42
2022-12-05T08:08:18.694Z,58.50
2022-12-05T08:11:24.118Z,57.88
2022-12-05T08:14:25.930Z,57.86
2022-12-05T08:17:30.885Z,57.32
2022-12-05T08:20:32.785Z,56.47
2022-12-05T08:23:35.512Z,56.74
2022-12-05T08:26:38.931Z,55.70
2022-12-05T08:29:40.763Z,55.76
2022-12-05T08:32:42.880Z,54.95
2022-12-05T08:35:44.785Z,54.80
2022-12-05T08:38:47.136Z,54.63
2022-12-05T08:41:49.790Z,54.31
2022-12-05T08:44:51.677Z,53.19
2022-12-05T08:47:53.550Z,52.99
2022-12-05T08:50:55.531Z,52.96
2022-12-05T08:53:57.466Z,52.75
2022-12-05T08:56:59.507Z,52.04
2022-12-05T09:00:01.519Z,52.10
2022-12-05T16:55:36.715Z,67.42
2022-12-05T16:58:39.004Z,65.39
2022-12-05T17:01:41.007Z,64.28
2022-12-05T17:04:43.473Z,63.88
2022-12-05T17:07:45.390Z,62.89
2022-12-05T17:10:47.594Z,62.73
2022-12-05T17:13:50.697Z,62.07
2022-12-05T17:16:52.651Z,62.25
2022-12-05T17:19:54.681Z,61.39
2022-12-05T17:22:58.659Z,61.58
2022-12-05T17:26:00.848Z,61.41
2022-12-05T17:29:03.689Z,61.11
2022-12-05T17:32:05.879Z,60.80
2022-12-05T17:35:15.757Z,60.45
2022-12-05T17:38:17.731Z,60.61
2022-12-05T17:41:23.577Z,60.23
2022-12-05T17:44:25.557Z,60.27
2022-12-05T17:47:27.522Z,60.43
2022-12-05T17:50:30.818Z,60.11
2022-12-05T17:53:33.142Z,59.75
2022-12-05T17:56:36.095Z,59.70
2022-12-05T17:59:40.361Z,59.54
2022-12-05T18:02:47.119Z,59.77
2022-12-05T18:05:52.407Z,59.89
2022-12-05T18:08:55.993Z,59.85
2022-12-05T18:11:59.214Z,59.85
2022-12-05T18:15:01.251Z,59.58
2022-12-05T18:18:06.015Z,59.64
2022-12-05T18:21:15.215Z,59.19
2022-12-05T18:24:21.216Z,59.51
2022-12-05T18:27:23.231Z,59.58
2022-12-05T18:30:25.394Z,59.33
2022-12-05T18:33:28.666Z,59.35
2022-12-05T18:36:30.606Z,59.16
2022-12-05T18:39:35.383Z,59.33
2022-12-05T18:42:38.166Z,59.31
2022-12-05T18:45:40.138Z,59.27
2022-12-05T18:48:50.374Z,59.36
2022-12-05T18:51:55.637Z,59.66
2022-12-05T18:55:16.263Z,59.49
2022-12-05T18:58:20.574Z,59.41
2022-12-05T19:01:23.217Z,59.31
2022-12-05T19:04:28.843Z,59.35
2022-12-05T19:07:32.937Z,59.07
2022-12-05T19:10:36.986Z,59.21
2022-12-05T19:24:03.838Z,59.25
2022-12-05T19:27:08.029Z,59.45
2022-12-05T19:30:10.755Z,59.17
2022-12-05T19:33:13.565Z,59.37
2022-12-05T19:36:22.791Z,59.35
2022-12-05T19:39:30.373Z,59.48
2022-12-05T19:42:32.728Z,59.42
2022-12-05T19:45:38.276Z,59.43
2022-12-05T19:48:40.325Z,59.48
2022-12-05T19:51:42.321Z,59.47
2022-12-05T19:54:45.280Z,59.65
2022-12-05T19:57:47.003Z,59.52
2022-12-05T20:00:52.520Z,59.50
2022-12-05T20:04:00.702Z,59.85
2022-12-05T20:07:04.371Z,60.01
2022-12-05T20:10:06.614Z,60.09
2022-12-05T20:13:44.743Z,60.16
2022-12-05T20:16:30.897Z,59.99
2022-12-05T20:19:32.727Z,60.13
2022-12-05T20:22:36.504Z,60.25
2022-12-05T20:25:38.464Z,60.43
2022-12-05T20:28:41.394Z,60.54
2022-12-05T20:31:43.366Z,60.43
2022-12-05T20:34:45.336Z,60.29
2022-12-05T20:37:47.284Z,60.36
2022-12-05T20:40:49.077Z,60.34
2022-12-05T20:43:55.148Z,60.55
2022-12-05T20:47:01.515Z,61.00
2022-12-05T20:50:03.605Z,60.95
2022-12-05T20:53:05.495Z,60.85
2022-12-05T20:56:09.868Z,61.40
2022-12-05T20:59:13.974Z,61.26
2022-12-05T21:02:15.971Z,61.50
2022-12-05T21:05:17.804Z,61.43
2022-12-05T21:08:19.966Z,61.65
2022-12-05T21:11:23.538Z,61.52
2022-12-05T21:14:25.451Z,61.33
2022-12-05T21:17:27.572Z,61.30
2022-12-05T21:20:29.377Z,61.75
2022-12-05T21:23:31.752Z,61.69
2022-12-05T21:26:34.950Z,61.66
2022-12-05T21:29:37.262Z,62.01
2022-12-05T21:32:39.357Z,62.53
2022-12-05T21:35:41.227Z,62.41
2022-12-05T21:38:44.001Z,62.45
2022-12-05T21:41:45.964Z,62.28
2022-12-05T21:44:49.406Z,62.51
2022-12-05T21:47:51.352Z,62.73
2022-12-05T21:50:53.495Z,62.76
2022-12-05T21:53:55.357Z,63.08
2022-12-05T21:56:57.409Z,63.05
2022-12-05T21:59:59.466Z,63.15
2022-12-05T22:03:02.196Z,63.17
2022-12-05T22:06:09.397Z,63.53
2022-12-05T22:09:12.081Z,63.36
2022-12-05T22:12:14.021Z,63.47
2022-12-05T22:15:15.975Z,63.96
2022-12-05T22:18:17.835Z,63.88
2022-12-05T22:21:21.367Z,64.04
2022-12-05T22:24:23.203Z,63.68
2022-12-05T22:27:25.112Z,64.10
2022-12-05T22:30:26.955Z,63.92
2022-12-05T22:33:29.437Z,64.02
2022-12-05T22:36:31.376Z,63.77
2022-12-05T22:39:33.243Z,63.68
2022-12-05T22:42:35.248Z,63.78
2022-12-05T22:45:37.098Z,64.18
2022-12-05T22:48:39.157Z,64.06
2022-12-05T22:51:41.219Z,64.02
2022-12-05T22:54:43.102Z,64.16
2022-12-05T22:57:44.972Z,63.93
2022-12-05T23:00:47.149Z,63.89
2022-12-05T23:03:53.955Z,64.19
2022-12-05T23:06:55.910Z,63.94
2022-12-05T23:09:58.196Z,63.96
2022-12-05T23:13:00.356Z,64.41
2022-12-05T23:16:10.727Z,64.39
2022-12-05T23:19:12.792Z,64.07
2022-12-05T23:22:14.635Z,64.51
2022-12-05T23:25:16.840Z,64.32
2022-12-05T23:28:18.785Z,64.42
2022-12-05T23:31:20.968Z,64.16
2022-12-05T23:34:22.833Z,64.40
2022-12-05T23:37:24.715Z,64.95
2022-12-05T23:40:26.582Z,65.02
2022-12-05T23:43:32.311Z,64.79
2022-12-05T23:46:34.249Z,64.73
2022-12-05T23:49:36.240Z,64.73
2022-12-05T23:52:38.213Z,65.12
2022-12-05T23:55:40.116Z,64.88
2022-12-05T23:58:43.542Z,65.34
